Wetterdaten: Woche 01.10.07 - 07.10.07 (KW40)
Datum Zeit Temperatur Luftfeuchte Luftdruck Niederschlag Wind Richtung Sonnenschein Solar Taupunkt Windchill Windben
01.10.2007 00:00 12.6 C 98 % 1024.3 hPa 0.0 l/m 0.4 km/h (0 Bft) O-SO 0.00 h 0 W/m 12.3 C 12.6 C 1.1 km/h (1 Bft)
01.10.2007 01:00 12.5 C 97 % 1024.4 hPa 0.0 l/m 0.4 km/h (0 Bft) O-SO 0.00 h 0 W/m 12.1 C 12.5 C 1.2 km/h (1 Bft)
01.10.2007 02:00 12.6 C 97 % 1024.3 hPa 0.0 l/m 0.2 km/h (0 Bft) O-SO 0.00 h 0 W/m 12.2 C 12.6 C 0.7 km/h (0 Bft)
01.10.2007 03:00 12.7 C 97 % 1024.2 hPa 0.0 l/m 0.0 km/h (0 Bft) N 0.00 h 0 W/m 12.2 C 12.7 C 0.0 km/h (0 Bft)
01.10.2007 04:00 12.7 C 97 % 1023.8 hPa 0.0 l/m 0.0 km/h (0 Bft) N 0.00 h 0 W/m 12.3 C 12.7 C 0.0 km/h (0 Bft)
01.10.2007 05:00 12.7 C 97 % 1023.9 hPa 0.0 l/m 0.0 km/h (0 Bft) N 0.00 h 0 W/m 12.3 C 12.7 C 0.2 km/h (0 Bft)
01.10.2007 06:00 12.3 C 98 % 1023.9 hPa 0.0 l/m 0.3 km/h (0 Bft) O-SO 0.00 h 0 W/m 12.1 C 12.3 C 1.0 km/h (0 Bft)
01.10.2007 07:00 12.3 C 99 % 1024.1 hPa 0.0 l/m 0.1 km/h (0 Bft) O-SO 0.00 h 9 W/m 12.1 C 12.3 C 0.6 km/h (0 Bft)
01.10.2007 08:00 12.6 C 98 % 1024.4 hPa 0.0 l/m 0.1 km/h (0 Bft) O-SO 0.00 h 46 W/m 12.4 C 12.6 C 0.7 km/h (0 Bft)
01.10.2007 09:00 13.0 C 96 % 1024.6 hPa 0.0 l/m 0.4 km/h (0 Bft) O-SO 0.00 h 103 W/m 12.4 C 13.0 C 1.4 km/h (1 Bft)
01.10.2007 10:00 14.1 C 92 % 1024.5 hPa 0.0 l/m 0.3 km/h (0 Bft) SO 0.20 h 223 W/m 12.8 C 14.1 C 1.5 km/h (1 Bft)
01.10.2007 11:00 15.5 C 87 % 1024.4 hPa 0.0 l/m 1.6 km/h (1 Bft) S-SO 0.93 h 439 W/m 13.3 C 15.5 C 3.6 km/h (1 Bft)
01.10.2007 12:00 17.3 C 81 % 1023.7 hPa 0.0 l/m 1.4 km/h (1 Bft) W-NW 1.00 h 496 W/m 13.9 C 17.3 C 3.6 km/h (1 Bft)
01.10.2007 13:00 18.7 C 75 % 1023.3 hPa 0.0 l/m 2.6 km/h (1 Bft) S-SO 1.00 h 549 W/m 14.1 C 18.7 C 5.1 km/h (1 Bft)
01.10.2007 14:00 20.4 C 68 % 1022.7 hPa 0.0 l/m 2.4 km/h (1 Bft) S-SO 1.00 h 515 W/m 14.3 C 20.4 C 5.5 km/h (1 Bft)
01.10.2007 15:00 21.5 C 66 % 1022.3 hPa 0.0 l/m 2.4 km/h (1 Bft) W-SW 1.00 h 456 W/m 14.8 C 21.5 C 5.0 km/h (1 Bft)
01.10.2007 16:00 21.1 C 67 % 1021.9 hPa 0.0 l/m 2.0 km/h (1 Bft) W-SW 0.70 h 266 W/m 14.7 C 21.1 C 5.0 km/h (1 Bft)
01.10.2007 17:00 20.8 C 67 % 1021.8 hPa 0.0 l/m 0.9 km/h (0 Bft) S-SO 0.93 h 192 W/m 14.5 C 20.8 C 2.6 km/h (1 Bft)
01.10.2007 18:00 19.5 C 74 % 1021.5 hPa 0.0 l/m 0.3 km/h (0 Bft) SO 0.05 h 33 W/m 14.6 C 19.5 C 1.2 km/h (1 Bft)
01.10.2007 19:00 16.7 C 87 % 1021.9 hPa 0.0 l/m 1.5 km/h (1 Bft) SO 0.00 h 5 W/m 14.6 C 16.7 C 2.4 km/h (1 Bft)
01.10.2007 20:00 15.5 C 91 % 1022.2 hPa 0.0 l/m 1.0 km/h (0 Bft) SO 0.00 h 0 W/m 14.1 C 15.5 C 2.0 km/h (1 Bft)
01.10.2007 21:00 14.7 C 94 % 1022.3 hPa 0.0 l/m 2.1 km/h (1 Bft) SO 0.00 h 0 W/m 13.7 C 14.7 C 3.1 km/h (1 Bft)
01.10.2007 22:00 14.0 C 95 % 1022.2 hPa 0.0 l/m 0.8 km/h (0 Bft) O-SO 0.00 h 0 W/m 13.3 C 14.0 C 1.7 km/h (1 Bft)
01.10.2007 23:00 13.2 C 97 % 1022.2 hPa 0.0 l/m 0.7 km/h (0 Bft) O-SO 0.00 h 0 W/m 12.8 C 13.2 C 1.1 km/h (1 Bft)
02.10.2007 00:00 12.8 C 99 % 1021.9 hPa 0.0 l/m 1.0 km/h (0 Bft) O-SO 0.00 h 0 W/m 12.6 C 12.8 C 1.7 km/h (1 Bft)
02.10.2007 01:00 12.6 C 99 % 1021.6 hPa 0.0 l/m 1.4 km/h (1 Bft) SO 0.00 h 0 W/m 12.5 C 12.6 C 2.5 km/h (1 Bft)
02.10.2007 02:00 12.4 C 100 % 1021.5 hPa 0.0 l/m 1.6 km/h (1 Bft) O 0.00 h 0 W/m 12.3 C 12.4 C 2.4 km/h (1 Bft)
02.10.2007 03:00 12.3 C 100 % 1021.3 hPa 0.0 l/m 0.4 km/h (0 Bft) SO 0.00 h 0 W/m 12.3 C 12.3 C 1.0 km/h (0 Bft)
02.10.2007 04:00 12.4 C 100 % 1021.1 hPa 0.0 l/m 0.7 km/h (0 Bft) SO 0.00 h 0 W/m 12.4 C 12.4 C 1.4 km/h (1 Bft)
02.10.2007 05:00 12.4 C 100 % 1021.1 hPa 0.0 l/m 0.0 km/h (0 Bft) N 0.00 h 0 W/m 12.4 C 12.4 C 0.2 km/h (0 Bft)
02.10.2007 06:00 12.5 C 100 % 1021.1 hPa 0.2 l/m 0.4 km/h (0 Bft) SO 0.00 h 0 W/m 12.5 C 12.5 C 1.2 km/h (1 Bft)
02.10.2007 07:00 12.2 C 100 % 1021.3 hPa 0.0 l/m 0.5 km/h (0 Bft) SO 0.00 h 11 W/m 12.2 C 12.2 C 1.4 km/h (1 Bft)
02.10.2007 08:00 12.3 C 100 % 1021.6 hPa 0.0 l/m 0.7 km/h (0 Bft) SO 0.00 h 46 W/m 12.3 C 12.3 C 1.7 km/h (1 Bft)
02.10.2007 09:00 12.8 C 100 % 1021.6 hPa 0.0 l/m 0.2 km/h (0 Bft) SO 0.00 h 107 W/m 12.8 C 12.8 C 1.1 km/h (1 Bft)
02.10.2007 10:00 13.7 C 100 % 1021.5 hPa 0.0 l/m 0.3 km/h (0 Bft) SO 0.12 h 194 W/m 13.7 C 13.7 C 1.3 km/h (1 Bft)
02.10.2007 11:00 16.0 C 90 % 1021.0 hPa 0.0 l/m 1.1 km/h (1 Bft) W-NW 0.98 h 407 W/m 14.2 C 16.0 C 2.3 km/h (1 Bft)
02.10.2007 12:00 17.5 C 83 % 1020.4 hPa 0.0 l/m 0.4 km/h (0 Bft) O-SO 0.47 h 362 W/m 14.7 C 17.5 C 2.0 km/h (1 Bft)
02.10.2007 13:00 19.2 C 78 % 1019.8 hPa 0.0 l/m 1.1 km/h (1 Bft) W 0.93 h 403 W/m 15.2 C 19.2 C 2.7 km/h (1 Bft)
02.10.2007 14:00 21.0 C 72 % 1019.0 hPa 0.0 l/m 1.5 km/h (1 Bft) SO 0.85 h 497 W/m 15.8 C 21.0 C 3.3 km/h (1 Bft)
02.10.2007 15:00 22.1 C 67 % 1018.5 hPa 0.0 l/m 1.7 km/h (1 Bft) S-SO 0.50 h 312 W/m 15.7 C 22.1 C 3.9 km/h (1 Bft)
02.10.2007 16:00 21.9 C 67 % 1018.2 hPa 0.0 l/m 0.8 km/h (0 Bft) S-SO 0.20 h 203 W/m 15.6 C 21.9 C 2.4 km/h (1 Bft)
02.10.2007 17:00 21.2 C 72 % 1018.0 hPa 0.0 l/m 0.2 km/h (0 Bft) S-SO 0.00 h 76 W/m 15.9 C 21.2 C 1.3 km/h (1 Bft)
02.10.2007 18:00 19.6 C 82 % 1018.2 hPa 0.0 l/m 3.2 km/h (1 Bft) O-SO 0.00 h 27 W/m 16.4 C 19.6 C 4.6 km/h (1 Bft)
02.10.2007 19:00 18.0 C 87 % 1018.4 hPa 0.0 l/m 1.8 km/h (1 Bft) O-SO 0.00 h 0 W/m 15.9 C 18.0 C 2.8 km/h (1 Bft)
02.10.2007 20:00 16.7 C 91 % 1019.0 hPa 0.0 l/m 1.4 km/h (1 Bft) O-SO 0.00 h 0 W/m 15.2 C 16.7 C 2.2 km/h (1 Bft)
02.10.2007 21:00 15.8 C 95 % 1019.4 hPa 0.0 l/m 1.0 km/h (0 Bft) O-SO 0.00 h 0 W/m 15.0 C 15.8 C 2.0 km/h (1 Bft)
02.10.2007 22:00 15.1 C 97 % 1019.4 hPa 0.0 l/m 2.0 km/h (1 Bft) O-SO 0.00 h 0 W/m 14.6 C 15.1 C 3.0 km/h (1 Bft)
02.10.2007 23:00 14.9 C 97 % 1019.2 hPa 0.0 l/m 0.8 km/h (0 Bft) O-SO 0.00 h 0 W/m 14.5 C 14.9 C 1.3 km/h (1 Bft)
03.10.2007 00:00 14.7 C 97 % 1018.9 hPa 0.0 l/m 1.0 km/h (0 Bft) O-SO 0.00 h 0 W/m 14.3 C 14.7 C 2.3 km/h (1 Bft)
03.10.2007 01:00 14.4 C 99 % 1018.9 hPa 0.0 l/m 1.1 km/h (1 Bft) O-SO 0.00 h 0 W/m 14.2 C 14.4 C 2.3 km/h (1 Bft)
03.10.2007 02:00 14.0 C 100 % 1018.9 hPa 0.0 l/m 1.1 km/h (1 Bft) O-SO 0.00 h 0 W/m 13.9 C 14.0 C 1.4 km/h (1 Bft)
03.10.2007 03:00 14.1 C 100 % 1018.8 hPa 0.0 l/m 0.5 km/h (0 Bft) O-SO 0.00 h 0 W/m 14.0 C 14.1 C 1.2 km/h (1 Bft)
03.10.2007 04:00 13.9 C 100 % 1018.9 hPa 0.0 l/m 0.0 km/h (0 Bft) O-SO 0.00 h 0 W/m 13.9 C 13.9 C 0.3 km/h (0 Bft)
03.10.2007 05:00 13.9 C 100 % 1019.0 hPa 0.0 l/m 0.3 km/h (0 Bft) O-SO 0.00 h 0 W/m 13.9 C 13.9 C 0.5 km/h (0 Bft)
03.10.2007 06:00 14.2 C 100 % 1019.1 hPa 0.0 l/m 0.0 km/h (0 Bft) N 0.00 h 0 W/m 14.2 C 14.2 C 0.2 km/h (0 Bft)
03.10.2007 07:00 14.4 C 100 % 1019.3 hPa 0.0 l/m 1.0 km/h (0 Bft) O-SO 0.00 h 9 W/m 14.4 C 14.4 C 2.0 km/h (1 Bft)
03.10.2007 08:00 14.5 C 100 % 1019.6 hPa 0.0 l/m 0.0 km/h (0 Bft) N 0.00 h 27 W/m 14.5 C 14.5 C 0.1 km/h (0 Bft)
03.10.2007 09:00 14.8 C 100 % 1019.8 hPa 0.0 l/m 0.0 km/h (0 Bft) O-SO 0.00 h 75 W/m 14.8 C 14.8 C 0.5 km/h (0 Bft)
03.10.2007 10:00 15.6 C 97 % 1019.9 hPa 0.0 l/m 0.4 km/h (0 Bft) O-SO 0.00 h 154 W/m 15.2 C 15.6 C 1.5 km/h (1 Bft)
03.10.2007 11:00 17.4 C 88 % 1019.6 hPa 0.0 l/m 1.5 km/h (1 Bft) W-NW 0.83 h 382 W/m 15.3 C 17.4 C 3.1 km/h (1 Bft)
03.10.2007 12:00 19.4 C 81 % 1019.1 hPa 0.0 l/m 1.5 km/h (1 Bft) W 1.00 h 519 W/m 16.0 C 19.4 C 2.9 km/h (1 Bft)
03.10.2007 13:00 21.3 C 73 % 1018.5 hPa 0.0 l/m 1.9 km/h (1 Bft) W-NW 1.00 h 568 W/m 16.4 C 21.3 C 3.6 km/h (1 Bft)
03.10.2007 14:00 22.2 C 70 % 1017.7 hPa 0.0 l/m 0.7 km/h (0 Bft) W-SW 0.90 h 422 W/m 16.4 C 22.2 C 2.1 km/h (1 Bft)
03.10.2007 15:00 23.5 C 66 % 1016.9 hPa 0.0 l/m 1.4 km/h (1 Bft) W 0.95 h 426 W/m 16.8 C 23.5 C 2.9 km/h (1 Bft)
03.10.2007 16:00 23.6 C 67 % 1016.6 hPa 0.0 l/m 3.1 km/h (1 Bft) N 0.70 h 272 W/m 17.0 C 23.6 C 5.0 km/h (1 Bft)
03.10.2007 17:00 23.0 C 67 % 1016.6 hPa 0.0 l/m 0.8 km/h (0 Bft) N-NW 0.73 h 146 W/m 16.7 C 23.0 C 2.2 km/h (1 Bft)
03.10.2007 18:00 20.9 C 78 % 1017.0 hPa 0.0 l/m 0.1 km/h (0 Bft) N-NO 0.00 h 24 W/m 16.9 C 20.9 C 0.5 km/h (0 Bft)
03.10.2007 19:00 18.8 C 87 % 1017.8 hPa 0.0 l/m 3.0 km/h (1 Bft) O-SO 0.00 h 0 W/m 16.5 C 18.8 C 4.4 km/h (1 Bft)
03.10.2007 20:00 17.9 C 91 % 1018.3 hPa 0.0 l/m 0.8 km/h (0 Bft) O 0.00 h 0 W/m 16.3 C 17.9 C 1.7 km/h (1 Bft)
03.10.2007 21:00 17.3 C 93 % 1018.6 hPa 0.0 l/m 0.7 km/h (0 Bft) S-SO 0.00 h 0 W/m 16.1 C 17.3 C 1.3 km/h (1 Bft)
03.10.2007 22:00 17.3 C 92 % 1019.3 hPa 0.0 l/m 1.5 km/h (1 Bft) O-SO 0.00 h 0 W/m 16.1 C 17.3 C 2.6 km/h (1 Bft)
03.10.2007 23:00 17.5 C 89 % 1019.4 hPa 0.0 l/m 1.4 km/h (1 Bft) O-SO 0.00 h 0 W/m 15.7 C 17.5 C 2.5 km/h (1 Bft)
04.10.2007 00:00 17.7 C 86 % 1019.3 hPa 0.0 l/m 2.2 km/h (1 Bft) SO 0.00 h 0 W/m 15.4 C 17.7 C 3.6 km/h (1 Bft)
04.10.2007 01:00 17.2 C 90 % 1019.2 hPa 0.0 l/m 2.0 km/h (1 Bft) SO 0.00 h 0 W/m 15.5 C 17.2 C 3.4 km/h (1 Bft)
04.10.2007 02:00 17.3 C 90 % 1019.1 hPa 0.0 l/m 0.5 km/h (0 Bft) SO 0.00 h 0 W/m 15.6 C 17.3 C 1.5 km/h (1 Bft)
04.10.2007 03:00 16.7 C 92 % 1018.7 hPa 0.0 l/m 1.6 km/h (1 Bft) SO 0.00 h 0 W/m 15.3 C 16.7 C 2.8 km/h (1 Bft)
04.10.2007 04:00 16.9 C 91 % 1019.1 hPa 0.0 l/m 0.5 km/h (0 Bft) SO 0.00 h 0 W/m 15.4 C 16.9 C 1.3 km/h (1 Bft)
04.10.2007 05:00 16.9 C 93 % 1019.8 hPa 0.4 l/m 2.0 km/h (1 Bft) S-SO 0.00 h 0 W/m 15.6 C 16.9 C 4.8 km/h (1 Bft)
04.10.2007 06:00 16.3 C 94 % 1020.4 hPa 0.0 l/m 1.4 km/h (1 Bft) S 0.00 h 0 W/m 15.4 C 16.3 C 4.0 km/h (1 Bft)
04.10.2007 07:00 16.0 C 95 % 1021.0 hPa 0.0 l/m 1.0 km/h (0 Bft) S-SO 0.00 h 0 W/m 15.3 C 16.0 C 2.8 km/h (1 Bft)
04.10.2007 08:00 15.9 C 96 % 1021.5 hPa 0.2 l/m 2.9 km/h (1 Bft) S-SO 0.00 h 8 W/m 15.2 C 15.9 C 5.9 km/h (2 Bft)
04.10.2007 09:00 15.9 C 95 % 1021.7 hPa 0.0 l/m 2.2 km/h (1 Bft) SO 0.00 h 22 W/m 15.1 C 15.9 C 4.3 km/h (1 Bft)
04.10.2007 10:00 16.4 C 92 % 1021.7 hPa 0.0 l/m 1.4 km/h (1 Bft) S-SO 0.00 h 94 W/m 15.1 C 16.4 C 3.8 km/h (1 Bft)
04.10.2007 11:00 17.2 C 90 % 1021.3 hPa 0.0 l/m 0.4 km/h (0 Bft) W 0.00 h 153 W/m 15.5 C 17.2 C 1.6 km/h (1 Bft)
04.10.2007 12:00 17.5 C 90 % 1021.1 hPa 0.0 l/m 0.5 km/h (0 Bft) W 0.00 h 156 W/m 15.8 C 17.5 C 1.3 km/h (1 Bft)
04.10.2007 13:00 18.1 C 88 % 1020.9 hPa 0.0 l/m 0.9 km/h (0 Bft) NW 0.00 h 211 W/m 16.1 C 18.1 C 2.1 km/h (1 Bft)
04.10.2007 14:00 19.0 C 83 % 1020.3 hPa 0.0 l/m 0.7 km/h (0 Bft) SO 0.05 h 281 W/m 16.0 C 19.0 C 1.9 km/h (1 Bft)
04.10.2007 15:00 19.3 C 82 % 1019.9 hPa 0.0 l/m 0.6 km/h (0 Bft) O-SO 0.00 h 184 W/m 16.3 C 19.3 C 1.9 km/h (1 Bft)
04.10.2007 16:00 19.9 C 81 % 1019.8 hPa 0.0 l/m 1.4 km/h (1 Bft) S-SO 0.43 h 224 W/m 16.6 C 19.9 C 3.8 km/h (1 Bft)
04.10.2007 17:00 19.6 C 82 % 1019.7 hPa 0.0 l/m 0.2 km/h (0 Bft) S 0.00 h 80 W/m 16.5 C 19.6 C 1.1 km/h (1 Bft)
04.10.2007 18:00 19.1 C 84 % 1020.0 hPa 0.0 l/m 1.1 km/h (0 Bft) S-SO 0.00 h 31 W/m 16.4 C 19.1 C 2.8 km/h (1 Bft)
04.10.2007 19:00 18.0 C 88 % 1020.0 hPa 0.0 l/m 1.2 km/h (1 Bft) S-SO 0.00 h 0 W/m 16.0 C 18.0 C 2.2 km/h (1 Bft)
04.10.2007 20:00 17.3 C 92 % 1020.4 hPa 0.0 l/m 0.4 km/h (0 Bft) SO 0.00 h 0 W/m 16.0 C 17.3 C 1.4 km/h (1 Bft)
04.10.2007 21:00 16.7 C 94 % 1020.6 hPa 0.0 l/m 0.6 km/h (0 Bft) SO 0.00 h 0 W/m 15.7 C 16.7 C 1.2 km/h (1 Bft)
04.10.2007 22:00 16.3 C 97 % 1020.8 hPa 0.0 l/m 0.2 km/h (0 Bft) SO 0.00 h 0 W/m 15.8 C 16.3 C 0.6 km/h (0 Bft)
04.10.2007 23:00 16.2 C 97 % 1020.9 hPa 0.0 l/m 0.1 km/h (0 Bft) SO 0.00 h 0 W/m 15.7 C 16.2 C 0.3 km/h (0 Bft)
05.10.2007 00:00 16.1 C 98 % 1021.3 hPa 0.0 l/m 0.2 km/h (0 Bft) SO 0.00 h 0 W/m 15.8 C 16.1 C 0.9 km/h (0 Bft)
05.10.2007 01:00 16.4 C 98 % 1021.3 hPa 0.0 l/m 0.6 km/h (0 Bft) SO 0.00 h 0 W/m 16.1 C 16.4 C 1.4 km/h (1 Bft)
05.10.2007 02:00 16.0 C 99 % 1021.1 hPa 0.0 l/m 0.8 km/h (0 Bft) O-SO 0.00 h 0 W/m 15.8 C 16.0 C 1.4 km/h (1 Bft)
05.10.2007 03:00 15.9 C 100 % 1020.6 hPa 0.0 l/m 0.0 km/h (0 Bft) N 0.00 h 0 W/m 15.8 C 15.9 C 0.2 km/h (0 Bft)
05.10.2007 04:00 15.8 C 100 % 1020.2 hPa 0.0 l/m 0.1 km/h (0 Bft) O 0.00 h 0 W/m 15.8 C 15.8 C 0.4 km/h (0 Bft)
05.10.2007 05:00 15.6 C 100 % 1020.2 hPa 0.0 l/m 0.0 km/h (0 Bft) N 0.00 h 0 W/m 15.6 C 15.6 C 0.2 km/h (0 Bft)
05.10.2007 06:00 15.7 C 100 % 1020.4 hPa 0.0 l/m 0.1 km/h (0 Bft) O 0.00 h 0 W/m 15.7 C 15.7 C 0.6 km/h (0 Bft)
05.10.2007 07:00 16.0 C 99 % 1020.6 hPa 0.0 l/m 0.3 km/h (0 Bft) O 0.00 h 7 W/m 15.8 C 16.0 C 1.1 km/h (0 Bft)
05.10.2007 08:00 16.0 C 98 % 1020.8 hPa 0.0 l/m 0.0 km/h (0 Bft) O 0.00 h 16 W/m 15.7 C 16.0 C 0.1 km/h (0 Bft)
05.10.2007 09:00 16.3 C 95 % 1021.1 hPa 0.0 l/m 0.1 km/h (0 Bft) O-SO 0.00 h 46 W/m 15.6 C 16.3 C 0.5 km/h (0 Bft)
05.10.2007 10:00 16.7 C 92 % 1021.2 hPa 0.0 l/m 0.1 km/h (0 Bft) S-SO 0.00 h 58 W/m 15.4 C 16.7 C 0.6 km/h (0 Bft)
05.10.2007 11:00 17.1 C 90 % 1021.1 hPa 0.0 l/m 0.7 km/h (0 Bft) W-NW 0.00 h 113 W/m 15.5 C 17.1 C 1.8 km/h (1 Bft)
05.10.2007 12:00 17.7 C 87 % 1020.7 hPa 0.0 l/m 1.3 km/h (1 Bft) N-NW 0.00 h 180 W/m 15.5 C 17.7 C 2.5 km/h (1 Bft)
05.10.2007 13:00 19.1 C 82 % 1020.1 hPa 0.0 l/m 2.9 km/h (1 Bft) N-NW 0.55 h 416 W/m 16.0 C 19.1 C 5.0 km/h (1 Bft)
05.10.2007 14:00 20.5 C 78 % 1019.2 hPa 0.0 l/m 3.3 km/h (1 Bft) NW 1.00 h 487 W/m 16.5 C 20.5 C 5.3 km/h (1 Bft)
05.10.2007 15:00 21.9 C 74 % 1018.5 hPa 0.0 l/m 2.9 km/h (1 Bft) W-NW 1.00 h 403 W/m 17.0 C 21.9 C 5.1 km/h (1 Bft)
05.10.2007 16:00 22.5 C 72 % 1017.9 hPa 0.0 l/m 2.7 km/h (1 Bft) N-NW 1.00 h 281 W/m 17.2 C 22.5 C 4.7 km/h (1 Bft)
05.10.2007 17:00 21.7 C 76 % 1017.6 hPa 0.0 l/m 3.7 km/h (1 Bft) N-NW 0.95 h 142 W/m 17.2 C 21.7 C 6.0 km/h (2 Bft)
05.10.2007 18:00 19.9 C 79 % 1017.5 hPa 0.0 l/m 4.8 km/h (1 Bft) N-NW 0.00 h 23 W/m 16.2 C 19.9 C 8.5 km/h (2 Bft)
05.10.2007 19:00 18.6 C 79 % 1018.0 hPa 0.0 l/m 4.2 km/h (1 Bft) N-NO 0.00 h 0 W/m 15.0 C 18.6 C 8.8 km/h (2 Bft)
05.10.2007 20:00 17.5 C 83 % 1018.5 hPa 0.0 l/m 3.6 km/h (1 Bft) N-NO 0.00 h 0 W/m 14.5 C 17.5 C 7.7 km/h (2 Bft)
05.10.2007 21:00 17.2 C 84 % 1018.6 hPa 0.0 l/m 2.7 km/h (1 Bft) O-SO 0.00 h 0 W/m 14.4 C 17.2 C 5.9 km/h (2 Bft)
05.10.2007 22:00 16.9 C 86 % 1018.7 hPa 0.0 l/m 0.9 km/h (0 Bft) NO 0.00 h 0 W/m 14.5 C 16.9 C 2.7 km/h (1 Bft)
05.10.2007 23:00 16.6 C 87 % 1018.7 hPa 0.0 l/m 0.8 km/h (0 Bft) NO 0.00 h 0 W/m 14.5 C 16.6 C 2.3 km/h (1 Bft)
06.10.2007 00:00 16.7 C 87 % 1018.4 hPa 0.0 l/m 0.2 km/h (0 Bft) O-SO 0.00 h 0 W/m 14.5 C 16.7 C 1.2 km/h (1 Bft)
06.10.2007 01:00 16.5 C 84 % 1018.1 hPa 0.0 l/m 0.6 km/h (0 Bft) NW 0.00 h 0 W/m 13.9 C 16.5 C 1.6 km/h (1 Bft)
06.10.2007 02:00 16.4 C 81 % 1017.9 hPa 0.0 l/m 0.4 km/h (0 Bft) NO 0.00 h 0 W/m 13.1 C 16.4 C 1.4 km/h (1 Bft)
06.10.2007 03:00 16.2 C 81 % 1017.6 hPa 0.0 l/m 0.3 km/h (0 Bft) N-NO 0.00 h 0 W/m 12.9 C 16.2 C 1.4 km/h (1 Bft)
06.10.2007 04:00 16.1 C 81 % 1017.2 hPa 0.0 l/m 0.2 km/h (0 Bft) O 0.00 h 0 W/m 12.7 C 16.1 C 0.9 km/h (0 Bft)
06.10.2007 05:00 15.7 C 78 % 1017.3 hPa 0.0 l/m 0.7 km/h (0 Bft) O-SO 0.00 h 0 W/m 11.9 C 15.7 C 2.0 km/h (1 Bft)
06.10.2007 06:00 15.4 C 77 % 1017.4 hPa 0.0 l/m 1.7 km/h (1 Bft) O-SO 0.00 h 0 W/m 11.4 C 15.4 C 3.7 km/h (1 Bft)
06.10.2007 07:00 15.0 C 79 % 1017.6 hPa 0.0 l/m 0.5 km/h (0 Bft) SO 0.08 h 17 W/m 11.5 C 15.0 C 1.7 km/h (1 Bft)
06.10.2007 08:00 14.5 C 82 % 1017.8 hPa 0.0 l/m 0.9 km/h (0 Bft) O-SO 0.00 h 42 W/m 11.4 C 14.5 C 2.2 km/h (1 Bft)
06.10.2007 09:00 14.5 C 77 % 1018.4 hPa 0.0 l/m 2.1 km/h (1 Bft) O 0.00 h 99 W/m 10.6 C 14.5 C 4.7 km/h (1 Bft)
06.10.2007 10:00 14.6 C 77 % 1018.7 hPa 0.0 l/m 4.2 km/h (1 Bft) O-SO 0.32 h 209 W/m 10.6 C 14.6 C 6.5 km/h (2 Bft)
06.10.2007 11:00 16.3 C 72 % 1018.6 hPa 0.0 l/m 5.1 km/h (1 Bft) O-SO 1.00 h 456 W/m 11.2 C 16.3 C 8.0 km/h (2 Bft)
06.10.2007 12:00 17.2 C 70 % 1018.2 hPa 0.0 l/m 6.7 km/h (2 Bft) O-SO 1.00 h 536 W/m 11.6 C 17.2 C 10.7 km/h (2 Bft)
06.10.2007 13:00 18.3 C 65 % 1017.7 hPa 0.0 l/m 4.5 km/h (1 Bft) O-SO 1.00 h 555 W/m 11.8 C 18.3 C 8.4 km/h (2 Bft)
06.10.2007 14:00 18.7 C 65 % 1017.4 hPa 0.0 l/m 10.8 km/h (2 Bft) O-SO 1.00 h 521 W/m 12.0 C 18.7 C 16.1 km/h (3 Bft)
06.10.2007 15:00 18.6 C 65 % 1017.3 hPa 0.0 l/m 11.5 km/h (2 Bft) O-SO 1.00 h 438 W/m 11.8 C 18.6 C 18.0 km/h (3 Bft)
06.10.2007 16:00 18.1 C 64 % 1017.4 hPa 0.0 l/m 9.8 km/h (2 Bft) O-SO 1.00 h 298 W/m 11.3 C 18.1 C 15.9 km/h (3 Bft)
06.10.2007 17:00 17.3 C 68 % 1017.6 hPa 0.0 l/m 7.9 km/h (2 Bft) O-SO 0.87 h 145 W/m 11.2 C 17.3 C 12.0 km/h (2 Bft)
06.10.2007 18:00 16.2 C 70 % 1018.1 hPa 0.0 l/m 2.5 km/h (1 Bft) O-SO 0.05 h 25 W/m 10.8 C 16.2 C 4.8 km/h (1 Bft)
06.10.2007 19:00 14.5 C 76 % 1018.7 hPa 0.0 l/m 0.7 km/h (0 Bft) O-SO 0.00 h 0 W/m 10.4 C 14.5 C 2.2 km/h (1 Bft)
06.10.2007 20:00 13.3 C 80 % 1019.2 hPa 0.0 l/m 1.7 km/h (1 Bft) N-NO 0.00 h 0 W/m 9.8 C 13.3 C 4.1 km/h (1 Bft)
06.10.2007 21:00 11.9 C 84 % 1019.7 hPa 0.0 l/m 0.4 km/h (0 Bft) NO 0.00 h 0 W/m 9.2 C 11.9 C 1.8 km/h (1 Bft)
06.10.2007 22:00 11.0 C 86 % 1020.1 hPa 0.0 l/m 1.4 km/h (1 Bft) O 0.00 h 0 W/m 8.8 C 11.0 C 3.0 km/h (1 Bft)
06.10.2007 23:00 11.1 C 82 % 1020.1 hPa 0.0 l/m 1.4 km/h (1 Bft) NO 0.00 h 0 W/m 8.2 C 11.1 C 3.2 km/h (1 Bft)
07.10.2007 00:00 10.1 C 87 % 1019.9 hPa 0.0 l/m 0.7 km/h (0 Bft) N-NO 0.00 h 0 W/m 8.1 C 10.1 C 2.5 km/h (1 Bft)
07.10.2007 01:00 9.4 C 89 % 1020.0 hPa 0.0 l/m 0.6 km/h (0 Bft) O-NO 0.00 h 0 W/m 7.6 C 9.4 C 1.2 km/h (1 Bft)
07.10.2007 02:00 8.3 C 91 % 1020.0 hPa 0.0 l/m 1.7 km/h (1 Bft) O 0.00 h 0 W/m 7.0 C 8.3 C 2.8 km/h (1 Bft)
07.10.2007 03:00 7.7 C 93 % 1019.8 hPa 0.0 l/m 0.5 km/h (0 Bft) O 0.00 h 0 W/m 6.8 C 7.7 C 1.5 km/h (1 Bft)
07.10.2007 04:00 7.3 C 95 % 1019.9 hPa 0.0 l/m 0.3 km/h (0 Bft) O 0.00 h 0 W/m 6.5 C 7.3 C 0.9 km/h (0 Bft)
07.10.2007 05:00 6.8 C 96 % 1020.0 hPa 0.0 l/m 0.8 km/h (0 Bft) O 0.00 h 0 W/m 6.2 C 6.8 C 1.6 km/h (1 Bft)
07.10.2007 06:00 7.2 C 96 % 1020.2 hPa 0.0 l/m 0.1 km/h (0 Bft) O 0.00 h 0 W/m 6.6 C 7.2 C 0.5 km/h (0 Bft)
07.10.2007 07:00 7.3 C 97 % 1020.6 hPa 0.0 l/m 0.8 km/h (0 Bft) N 0.00 h 9 W/m 6.9 C 7.3 C 2.3 km/h (1 Bft)
07.10.2007 08:00 7.9 C 95 % 1021.0 hPa 0.0 l/m 0.7 km/h (0 Bft) N 0.00 h 55 W/m 7.1 C 7.9 C 1.9 km/h (1 Bft)
07.10.2007 09:00 9.3 C 89 % 1021.2 hPa 0.0 l/m 0.9 km/h (0 Bft) W-NW 0.37 h 164 W/m 7.6 C 9.3 C 2.5 km/h (1 Bft)
07.10.2007 10:00 11.6 C 81 % 1021.1 hPa 0.0 l/m 0.3 km/h (0 Bft) W-NW 0.67 h 285 W/m 8.4 C 11.6 C 1.2 km/h (1 Bft)
07.10.2007 11:00 13.8 C 74 % 1020.8 hPa 0.0 l/m 1.4 km/h (1 Bft) NW 1.00 h 454 W/m 9.2 C 13.8 C 2.9 km/h (1 Bft)
07.10.2007 12:00 15.4 C 71 % 1020.4 hPa 0.0 l/m 1.9 km/h (1 Bft) O-SO 1.00 h 531 W/m 10.2 C 15.4 C 4.0 km/h (1 Bft)
07.10.2007 13:00 17.0 C 66 % 1019.8 hPa 0.0 l/m 4.4 km/h (1 Bft) O-SO 1.00 h 556 W/m 10.6 C 17.0 C 7.4 km/h (2 Bft)
07.10.2007 14:00 18.0 C 63 % 1019.4 hPa 0.0 l/m 2.5 km/h (1 Bft) W 1.00 h 548 W/m 10.9 C 18.0 C 4.6 km/h (1 Bft)
07.10.2007 15:00 19.1 C 60 % 1019.1 hPa 0.0 l/m 2.4 km/h (1 Bft) W 1.00 h 491 W/m 11.0 C 19.1 C 4.7 km/h (1 Bft)
07.10.2007 16:00 18.3 C 60 % 1018.8 hPa 0.0 l/m 1.4 km/h (1 Bft) O-SO 1.00 h 325 W/m 10.5 C 18.3 C 3.5 km/h (1 Bft)
07.10.2007 17:00 17.9 C 62 % 1018.9 hPa 0.0 l/m 1.2 km/h (1 Bft) S-SO 0.98 h 167 W/m 10.5 C 17.9 C 2.8 km/h (1 Bft)
07.10.2007 18:00 16.0 C 70 % 1019.4 hPa 0.0 l/m 4.4 km/h (1 Bft) O 0.07 h 24 W/m 10.5 C 16.0 C 5.6 km/h (1 Bft)
07.10.2007 19:00 13.5 C 81 % 1020.0 hPa 0.0 l/m 1.6 km/h (1 Bft) O 0.00 h 0 W/m 10.3 C 13.5 C 2.8 km/h (1 Bft)
07.10.2007 20:00 11.8 C 87 % 1020.6 hPa 0.0 l/m 0.4 km/h (0 Bft) O 0.00 h 0 W/m 9.8 C 11.8 C 1.1 km/h (1 Bft)
07.10.2007 21:00 10.6 C 92 % 1020.9 hPa 0.0 l/m 1.4 km/h (1 Bft) O 0.00 h 0 W/m 9.3 C 10.6 C 2.2 km/h (1 Bft)
07.10.2007 22:00 9.9 C 94 % 1021.2 hPa 0.0 l/m 1.0 km/h (0 Bft) O 0.00 h 0 W/m 8.9 C 9.9 C 1.8 km/h (1 Bft)
07.10.2007 23:00 9.3 C 96 % 1021.3 hPa 0.0 l/m 1.7 km/h (1 Bft) O 0.00 h 0 W/m 8.7 C 9.3 C 2.8 km/h (1 Bft)
Min-Datum _ 07.10.07 07.10.07 03.10.07 - 01.10.07 - - - 07.10.07 07.10.07 01.10.07
_ Min-Zeit 05:22 15:38 16:30 - 00:00 - - - 05:06 05:22 00:00
Minimum _ 6.6 C 56 % 1016.5 hPa - 0.0 km/h (0 Bft) - - - 5.9 C 6.6 C 0.0 km/h (0 Bft)
Max-Datum _ 03.10.07 02.10.07 01.10.07 04.10.07 06.10.07 - 07.10.07 05.10.07 03.10.07 03.10.07 06.10.07
_ Max-Zeit 16:50 01:02 09:15 05:22 14:44 - 15:11 13:36 15:40 16:50 15:08
Maximum _ 24.2 C 100 % 1024.6 hPa 0.4 l/m 17.9 km/h
O-SO (3 Bft)
- 0.03 h 689 W/m 18.2 C 24.2 C 27.8 km/h
O-SO (4 Bft)
Durchschnitt _ 15.9 C 87 % 1020.1 hPa #0.8 l/m 1.4 km/h (1 Bft) O-SO #37:22 h 233 W/m 13.5 C 15.9 C 2.9 km/h (1 Bft)
© Kaiko 2007